sensor_id;sensor_type;location;lat;lon;timestamp;P1;durP1;ratioP1;P2;durP2;ratioP2
4585;SDS011;2305;50.118;8.952;2022-09-29T00:00:58;3.80;;;3.03;;
4585;SDS011;2305;50.118;8.952;2022-09-29T00:03:27;7.80;;;3.27;;
4585;SDS011;2305;50.118;8.952;2022-09-29T00:05:56;8.10;;;3.30;;
4585;SDS011;2305;50.118;8.952;2022-09-29T00:08:25;8.40;;;2.53;;
4585;SDS011;2305;50.118;8.952;2022-09-29T00:10:55;8.43;;;2.80;;
4585;SDS011;2305;50.118;8.952;2022-09-29T00:13:23;3.63;;;2.63;;
4585;SDS011;2305;50.118;8.952;2022-09-29T00:15:56;11.70;;;3.47;;
4585;SDS011;2305;50.118;8.952;2022-09-29T00:18:25;15.03;;;3.70;;
4585;SDS011;2305;50.118;8.952;2022-09-29T00:21:00;6.70;;;2.90;;
4585;SDS011;2305;50.118;8.952;2022-09-29T00:23:30;5.50;;;2.97;;
4585;SDS011;2305;50.118;8.952;2022-09-29T00:26:04;5.07;;;3.40;;
4585;SDS011;2305;50.118;8.952;2022-09-29T00:28:34;3.70;;;2.60;;
4585;SDS011;2305;50.118;8.952;2022-09-29T00:31:03;6.03;;;2.77;;
4585;SDS011;2305;50.118;8.952;2022-09-29T00:33:33;4.47;;;3.13;;
4585;SDS011;2305;50.118;8.952;2022-09-29T00:36:04;4.10;;;2.60;;
4585;SDS011;2305;50.118;8.952;2022-09-29T00:38:34;11.60;;;3.40;;
4585;SDS011;2305;50.118;8.952;2022-09-29T00:41:04;3.83;;;2.53;;
4585;SDS011;2305;50.118;8.952;2022-09-29T00:43:47;5.63;;;2.77;;
4585;SDS011;2305;50.118;8.952;2022-09-29T00:46:19;6.63;;;3.30;;
4585;SDS011;2305;50.118;8.952;2022-09-29T00:48:53;9.93;;;2.43;;
4585;SDS011;2305;50.118;8.952;2022-09-29T00:51:25;4.33;;;3.07;;
4585;SDS011;2305;50.118;8.952;2022-09-29T00:53:55;4.87;;;3.00;;
4585;SDS011;2305;50.118;8.952;2022-09-29T00:56:26;4.20;;;2.80;;
4585;SDS011;2305;50.118;8.952;2022-09-29T00:58:55;4.23;;;2.87;;
4585;SDS011;2305;50.118;8.952;2022-09-29T01:01:27;5.20;;;2.60;;
4585;SDS011;2305;50.118;8.952;2022-09-29T01:03:58;5.30;;;2.70;;
4585;SDS011;2305;50.118;8.952;2022-09-29T01:06:31;5.37;;;3.10;;
4585;SDS011;2305;50.118;8.952;2022-09-29T01:09:03;4.60;;;2.70;;
4585;SDS011;2305;50.118;8.952;2022-09-29T01:11:34;10.37;;;2.57;;
4585;SDS011;2305;50.118;8.952;2022-09-29T01:14:03;4.33;;;2.73;;
4585;SDS011;2305;50.118;8.952;2022-09-29T01:16:34;13.60;;;3.70;;
4585;SDS011;2305;50.118;8.952;2022-09-29T01:19:06;6.60;;;2.77;;
4585;SDS011;2305;50.118;8.952;2022-09-29T01:21:39;5.70;;;3.20;;
4585;SDS011;2305;50.118;8.952;2022-09-29T01:27:31;6.63;;;3.50;;
4585;SDS011;2305;50.118;8.952;2022-09-29T01:30:13;11.33;;;3.33;;
4585;SDS011;2305;50.118;8.952;2022-09-29T01:32:59;4.63;;;2.83;;
4585;SDS011;2305;50.118;8.952;2022-09-29T01:35:40;5.73;;;3.30;;
4585;SDS011;2305;50.118;8.952;2022-09-29T01:38:25;4.63;;;2.93;;
4585;SDS011;2305;50.118;8.952;2022-09-29T01:41:02;4.90;;;3.17;;
4585;SDS011;2305;50.118;8.952;2022-09-29T01:43:37;6.53;;;3.33;;
4585;SDS011;2305;50.118;8.952;2022-09-29T01:46:10;5.10;;;2.40;;
4585;SDS011;2305;50.118;8.952;2022-09-29T01:48:44;4.27;;;3.10;;
4585;SDS011;2305;50.118;8.952;2022-09-29T01:51:17;5.03;;;2.93;;
4585;SDS011;2305;50.118;8.952;2022-09-29T01:53:50;9.20;;;3.67;;
4585;SDS011;2305;50.118;8.952;2022-09-29T01:56:24;4.43;;;3.27;;
4585;SDS011;2305;50.118;8.952;2022-09-29T01:58:59;3.97;;;2.70;;
4585;SDS011;2305;50.118;8.952;2022-09-29T02:01:31;8.90;;;2.67;;
4585;SDS011;2305;50.118;8.952;2022-09-29T02:04:07;5.60;;;2.97;;
4585;SDS011;2305;50.118;8.952;2022-09-29T02:06:45;3.80;;;2.77;;
4585;SDS011;2305;50.118;8.952;2022-09-29T02:09:22;14.20;;;3.40;;
4585;SDS011;2305;50.118;8.952;2022-09-29T02:11:54;4.30;;;3.30;;
4585;SDS011;2305;50.118;8.952;2022-09-29T02:14:26;5.00;;;3.60;;
4585;SDS011;2305;50.118;8.952;2022-09-29T02:16:58;6.50;;;3.57;;
4585;SDS011;2305;50.118;8.952;2022-09-29T02:19:32;9.10;;;3.27;;
4585;SDS011;2305;50.118;8.952;2022-09-29T02:22:04;5.90;;;3.40;;
4585;SDS011;2305;50.118;8.952;2022-09-29T02:24:32;5.20;;;3.03;;
4585;SDS011;2305;50.118;8.952;2022-09-29T02:27:00;6.03;;;3.23;;
4585;SDS011;2305;50.118;8.952;2022-09-29T02:29:30;12.13;;;3.07;;
4585;SDS011;2305;50.118;8.952;2022-09-29T02:31:59;3.50;;;2.77;;
4585;SDS011;2305;50.118;8.952;2022-09-29T02:34:28;11.13;;;3.30;;
4585;SDS011;2305;50.118;8.952;2022-09-29T02:37:04;6.70;;;3.33;;
4585;SDS011;2305;50.118;8.952;2022-09-29T02:39:43;5.50;;;2.90;;
4585;SDS011;2305;50.118;8.952;2022-09-29T02:42:17;9.67;;;2.80;;
4585;SDS011;2305;50.118;8.952;2022-09-29T02:44:55;3.83;;;2.83;;
4585;SDS011;2305;50.118;8.952;2022-09-29T02:47:40;4.93;;;3.00;;
4585;SDS011;2305;50.118;8.952;2022-09-29T02:50:30;5.23;;;2.93;;
4585;SDS011;2305;50.118;8.952;2022-09-29T02:53:11;5.03;;;2.80;;
4585;SDS011;2305;50.118;8.952;2022-09-29T02:55:51;5.10;;;2.80;;
4585;SDS011;2305;50.118;8.952;2022-09-29T02:58:25;5.50;;;3.13;;
4585;SDS011;2305;50.118;8.952;2022-09-29T03:00:57;4.17;;;3.10;;
4585;SDS011;2305;50.118;8.952;2022-09-29T03:03:26;6.67;;;3.13;;
4585;SDS011;2305;50.118;8.952;2022-09-29T03:05:55;6.83;;;3.07;;
4585;SDS011;2305;50.118;8.952;2022-09-29T03:08:23;6.73;;;3.13;;
4585;SDS011;2305;50.118;8.952;2022-09-29T03:10:51;8.60;;;2.57;;
4585;SDS011;2305;50.118;8.952;2022-09-29T03:13:19;4.00;;;2.40;;
4585;SDS011;2305;50.118;8.952;2022-09-29T03:15:47;8.03;;;3.10;;
4585;SDS011;2305;50.118;8.952;2022-09-29T03:18:15;4.30;;;2.90;;
4585;SDS011;2305;50.118;8.952;2022-09-29T03:20:45;4.17;;;2.77;;
4585;SDS011;2305;50.118;8.952;2022-09-29T03:23:15;4.00;;;2.90;;
4585;SDS011;2305;50.118;8.952;2022-09-29T03:25:43;5.57;;;3.50;;
4585;SDS011;2305;50.118;8.952;2022-09-29T03:28:13;8.20;;;2.77;;
4585;SDS011;2305;50.118;8.952;2022-09-29T03:30:42;7.87;;;3.17;;
4585;SDS011;2305;50.118;8.952;2022-09-29T03:33:10;3.00;;;2.70;;
4585;SDS011;2305;50.118;8.952;2022-09-29T03:35:38;4.70;;;2.63;;
4585;SDS011;2305;50.118;8.952;2022-09-29T03:38:10;6.50;;;3.17;;
4585;SDS011;2305;50.118;8.952;2022-09-29T03:40:39;4.70;;;2.50;;
4585;SDS011;2305;50.118;8.952;2022-09-29T03:43:07;5.30;;;2.83;;
4585;SDS011;2305;50.118;8.952;2022-09-29T03:45:35;7.13;;;3.17;;
4585;SDS011;2305;50.118;8.952;2022-09-29T03:48:03;9.90;;;3.10;;
4585;SDS011;2305;50.118;8.952;2022-09-29T03:50:31;6.13;;;2.50;;
4585;SDS011;2305;50.118;8.952;2022-09-29T03:53:01;4.53;;;2.93;;
4585;SDS011;2305;50.118;8.952;2022-09-29T03:55:29;4.93;;;2.93;;
4585;SDS011;2305;50.118;8.952;2022-09-29T03:57:58;6.90;;;3.17;;
4585;SDS011;2305;50.118;8.952;2022-09-29T04:00:26;3.50;;;2.63;;
4585;SDS011;2305;50.118;8.952;2022-09-29T04:02:54;9.63;;;2.50;;
4585;SDS011;2305;50.118;8.952;2022-09-29T04:05:22;3.60;;;2.67;;
4585;SDS011;2305;50.118;8.952;2022-09-29T04:07:51;5.83;;;2.60;;
4585;SDS011;2305;50.118;8.952;2022-09-29T04:10:18;3.87;;;2.57;;
4585;SDS011;2305;50.118;8.952;2022-09-29T04:12:46;6.73;;;3.23;;
4585;SDS011;2305;50.118;8.952;2022-09-29T04:15:16;5.30;;;3.33;;
4585;SDS011;2305;50.118;8.952;2022-09-29T04:17:44;3.37;;;2.70;;
4585;SDS011;2305;50.118;8.952;2022-09-29T04:20:11;7.23;;;2.60;;
4585;SDS011;2305;50.118;8.952;2022-09-29T04:22:41;10.90;;;3.30;;
4585;SDS011;2305;50.118;8.952;2022-09-29T04:25:09;6.53;;;3.33;;
4585;SDS011;2305;50.118;8.952;2022-09-29T04:27:37;7.97;;;2.80;;
4585;SDS011;2305;50.118;8.952;2022-09-29T04:30:06;12.30;;;3.13;;
4585;SDS011;2305;50.118;8.952;2022-09-29T04:32:36;8.20;;;3.07;;
4585;SDS011;2305;50.118;8.952;2022-09-29T04:35:04;4.73;;;2.37;;
4585;SDS011;2305;50.118;8.952;2022-09-29T04:37:33;3.30;;;2.83;;
4585;SDS011;2305;50.118;8.952;2022-09-29T04:40:01;9.63;;;3.40;;
4585;SDS011;2305;50.118;8.952;2022-09-29T04:42:29;7.23;;;2.77;;
4585;SDS011;2305;50.118;8.952;2022-09-29T04:44:57;9.67;;;3.60;;
4585;SDS011;2305;50.118;8.952;2022-09-29T04:47:27;4.37;;;2.97;;
4585;SDS011;2305;50.118;8.952;2022-09-29T04:49:57;8.83;;;3.50;;
4585;SDS011;2305;50.118;8.952;2022-09-29T04:52:25;3.80;;;2.77;;
4585;SDS011;2305;50.118;8.952;2022-09-29T04:54:53;6.40;;;2.50;;
4585;SDS011;2305;50.118;8.952;2022-09-29T04:57:21;7.60;;;4.13;;
4585;SDS011;2305;50.118;8.952;2022-09-29T04:59:49;7.83;;;3.10;;
4585;SDS011;2305;50.118;8.952;2022-09-29T05:02:17;10.13;;;3.37;;
4585;SDS011;2305;50.118;8.952;2022-09-29T05:04:45;11.20;;;3.93;;
4585;SDS011;2305;50.118;8.952;2022-09-29T05:07:15;9.13;;;3.20;;
4585;SDS011;2305;50.118;8.952;2022-09-29T05:09:45;4.80;;;3.10;;
4585;SDS011;2305;50.118;8.952;2022-09-29T05:12:13;6.50;;;3.30;;
4585;SDS011;2305;50.118;8.952;2022-09-29T05:14:41;4.00;;;3.20;;
4585;SDS011;2305;50.118;8.952;2022-09-29T05:17:09;3.07;;;2.77;;
4585;SDS011;2305;50.118;8.952;2022-09-29T05:19:39;4.40;;;2.60;;
4585;SDS011;2305;50.118;8.952;2022-09-29T05:22:07;9.37;;;3.53;;
4585;SDS011;2305;50.118;8.952;2022-09-29T05:24:37;3.80;;;3.10;;
4585;SDS011;2305;50.118;8.952;2022-09-29T05:27:05;3.73;;;3.03;;
4585;SDS011;2305;50.118;8.952;2022-09-29T05:29:33;4.97;;;3.17;;
4585;SDS011;2305;50.118;8.952;2022-09-29T05:32:01;6.43;;;3.30;;
4585;SDS011;2305;50.118;8.952;2022-09-29T05:34:29;8.50;;;3.80;;
4585;SDS011;2305;50.118;8.952;2022-09-29T05:36:56;3.60;;;2.90;;
4585;SDS011;2305;50.118;8.952;2022-09-29T05:39:24;5.03;;;3.00;;
4585;SDS011;2305;50.118;8.952;2022-09-29T05:41:54;6.53;;;3.43;;
4585;SDS011;2305;50.118;8.952;2022-09-29T05:44:27;5.70;;;3.17;;
4585;SDS011;2305;50.118;8.952;2022-09-29T05:46:55;7.37;;;2.97;;
4585;SDS011;2305;50.118;8.952;2022-09-29T05:49:23;6.93;;;3.30;;
4585;SDS011;2305;50.118;8.952;2022-09-29T05:51:51;11.20;;;3.87;;
4585;SDS011;2305;50.118;8.952;2022-09-29T05:54:19;10.00;;;4.70;;
4585;SDS011;2305;50.118;8.952;2022-09-29T05:56:48;9.37;;;3.23;;
4585;SDS011;2305;50.118;8.952;2022-09-29T05:59:17;9.97;;;3.83;;
4585;SDS011;2305;50.118;8.952;2022-09-29T06:01:45;7.47;;;3.27;;
4585;SDS011;2305;50.118;8.952;2022-09-29T06:04:13;4.53;;;3.23;;
4585;SDS011;2305;50.118;8.952;2022-09-29T06:06:42;4.87;;;3.13;;
4585;SDS011;2305;50.118;8.952;2022-09-29T06:09:13;4.90;;;2.90;;
4585;SDS011;2305;50.118;8.952;2022-09-29T06:11:41;10.80;;;3.57;;
4585;SDS011;2305;50.118;8.952;2022-09-29T06:14:09;10.17;;;3.83;;
4585;SDS011;2305;50.118;8.952;2022-09-29T06:16:38;4.93;;;3.40;;
4585;SDS011;2305;50.118;8.952;2022-09-29T06:19:10;11.27;;;4.33;;
4585;SDS011;2305;50.118;8.952;2022-09-29T06:21:38;8.73;;;4.17;;
4585;SDS011;2305;50.118;8.952;2022-09-29T06:24:07;11.20;;;4.70;;
4585;SDS011;2305;50.118;8.952;2022-09-29T06:26:35;11.10;;;4.83;;
4585;SDS011;2305;50.118;8.952;2022-09-29T06:29:03;6.97;;;3.80;;
4585;SDS011;2305;50.118;8.952;2022-09-29T06:31:31;8.90;;;4.00;;
4585;SDS011;2305;50.118;8.952;2022-09-29T06:34:01;12.03;;;4.07;;
4585;SDS011;2305;50.118;8.952;2022-09-29T06:36:32;10.90;;;4.10;;
4585;SDS011;2305;50.118;8.952;2022-09-29T06:39:21;13.27;;;4.40;;
4585;SDS011;2305;50.118;8.952;2022-09-29T06:41:51;9.70;;;4.03;;
4585;SDS011;2305;50.118;8.952;2022-09-29T06:44:21;9.13;;;3.97;;
4585;SDS011;2305;50.118;8.952;2022-09-29T06:46:50;9.30;;;4.40;;
4585;SDS011;2305;50.118;8.952;2022-09-29T06:49:20;5.33;;;4.17;;
4585;SDS011;2305;50.118;8.952;2022-09-29T06:51:48;9.87;;;4.00;;
4585;SDS011;2305;50.118;8.952;2022-09-29T06:54:16;10.83;;;4.00;;
4585;SDS011;2305;50.118;8.952;2022-09-29T06:56:46;7.97;;;3.30;;
4585;SDS011;2305;50.118;8.952;2022-09-29T06:59:15;9.40;;;4.10;;
4585;SDS011;2305;50.118;8.952;2022-09-29T07:01:44;12.23;;;4.53;;
4585;SDS011;2305;50.118;8.952;2022-09-29T07:04:15;6.27;;;3.47;;
4585;SDS011;2305;50.118;8.952;2022-09-29T07:06:44;9.00;;;4.20;;
4585;SDS011;2305;50.118;8.952;2022-09-29T07:09:12;13.33;;;4.27;;
4585;SDS011;2305;50.118;8.952;2022-09-29T07:11:42;24.43;;;4.50;;
4585;SDS011;2305;50.118;8.952;2022-09-29T07:14:12;9.73;;;3.80;;
4585;SDS011;2305;50.118;8.952;2022-09-29T07:16:42;5.90;;;3.90;;
4585;SDS011;2305;50.118;8.952;2022-09-29T07:19:11;10.07;;;4.30;;
4585;SDS011;2305;50.118;8.952;2022-09-29T07:21:39;8.00;;;4.17;;
4585;SDS011;2305;50.118;8.952;2022-09-29T07:24:09;9.73;;;4.70;;
4585;SDS011;2305;50.118;8.952;2022-09-29T07:26:37;9.53;;;4.50;;
4585;SDS011;2305;50.118;8.952;2022-09-29T07:29:05;18.13;;;5.00;;
4585;SDS011;2305;50.118;8.952;2022-09-29T07:31:40;8.70;;;3.60;;
4585;SDS011;2305;50.118;8.952;2022-09-29T07:34:19;8.20;;;4.33;;
4585;SDS011;2305;50.118;8.952;2022-09-29T07:36:48;8.57;;;4.53;;
4585;SDS011;2305;50.118;8.952;2022-09-29T07:39:18;16.13;;;4.60;;
4585;SDS011;2305;50.118;8.952;2022-09-29T07:41:47;11.03;;;4.70;;
4585;SDS011;2305;50.118;8.952;2022-09-29T07:44:14;6.73;;;4.43;;
4585;SDS011;2305;50.118;8.952;2022-09-29T07:46:47;11.80;;;5.10;;
4585;SDS011;2305;50.118;8.952;2022-09-29T07:49:15;10.87;;;5.13;;
4585;SDS011;2305;50.118;8.952;2022-09-29T07:51:43;10.53;;;4.73;;
4585;SDS011;2305;50.118;8.952;2022-09-29T07:54:11;7.80;;;3.93;;
4585;SDS011;2305;50.118;8.952;2022-09-29T07:56:40;9.27;;;4.20;;
4585;SDS011;2305;50.118;8.952;2022-09-29T07:59:08;6.50;;;5.07;;
4585;SDS011;2305;50.118;8.952;2022-09-29T08:01:37;11.50;;;4.80;;
4585;SDS011;2305;50.118;8.952;2022-09-29T08:04:05;8.70;;;4.70;;
4585;SDS011;2305;50.118;8.952;2022-09-29T08:06:33;11.47;;;5.07;;
4585;SDS011;2305;50.118;8.952;2022-09-29T08:09:01;6.90;;;4.10;;
4585;SDS011;2305;50.118;8.952;2022-09-29T08:11:36;5.87;;;4.83;;
4585;SDS011;2305;50.118;8.952;2022-09-29T08:14:06;8.73;;;4.43;;
4585;SDS011;2305;50.118;8.952;2022-09-29T08:16:35;7.50;;;5.10;;
4585;SDS011;2305;50.118;8.952;2022-09-29T08:19:04;5.27;;;4.40;;
4585;SDS011;2305;50.118;8.952;2022-09-29T08:21:32;7.53;;;4.87;;
4585;SDS011;2305;50.118;8.952;2022-09-29T08:24:02;7.53;;;4.60;;
4585;SDS011;2305;50.118;8.952;2022-09-29T08:26:31;8.83;;;5.33;;
4585;SDS011;2305;50.118;8.952;2022-09-29T08:29:09;7.90;;;4.70;;
4585;SDS011;2305;50.118;8.952;2022-09-29T08:31:42;9.40;;;4.63;;
4585;SDS011;2305;50.118;8.952;2022-09-29T08:34:10;8.10;;;4.90;;
4585;SDS011;2305;50.118;8.952;2022-09-29T08:36:40;5.40;;;3.97;;
4585;SDS011;2305;50.118;8.952;2022-09-29T08:39:09;5.87;;;4.30;;
4585;SDS011;2305;50.118;8.952;2022-09-29T08:41:44;6.90;;;4.50;;
4585;SDS011;2305;50.118;8.952;2022-09-29T08:44:20;6.60;;;4.70;;
4585;SDS011;2305;50.118;8.952;2022-09-29T08:47:04;10.03;;;4.90;;
4585;SDS011;2305;50.118;8.952;2022-09-29T08:49:41;10.43;;;5.03;;
4585;SDS011;2305;50.118;8.952;2022-09-29T08:52:14;8.73;;;4.37;;
4585;SDS011;2305;50.118;8.952;2022-09-29T08:54:45;12.23;;;4.37;;
4585;SDS011;2305;50.118;8.952;2022-09-29T08:57:17;8.30;;;4.20;;
4585;SDS011;2305;50.118;8.952;2022-09-29T08:59:51;6.70;;;4.30;;
4585;SDS011;2305;50.118;8.952;2022-09-29T09:05:25;8.27;;;4.87;;
4585;SDS011;2305;50.118;8.952;2022-09-29T09:08:13;5.57;;;4.60;;
4585;SDS011;2305;50.118;8.952;2022-09-29T09:10:48;6.17;;;4.70;;
4585;SDS011;2305;50.118;8.952;2022-09-29T09:13:29;6.77;;;5.23;;
4585;SDS011;2305;50.118;8.952;2022-09-29T09:16:13;6.23;;;5.10;;
4585;SDS011;2305;50.118;8.952;2022-09-29T09:18:57;7.80;;;4.60;;
4585;SDS011;2305;50.118;8.952;2022-09-29T09:21:40;8.37;;;5.33;;
4585;SDS011;2305;50.118;8.952;2022-09-29T09:24:13;10.57;;;4.80;;
4585;SDS011;2305;50.118;8.952;2022-09-29T09:26:50;9.90;;;4.90;;
4585;SDS011;2305;50.118;8.952;2022-09-29T09:29:20;10.53;;;5.47;;
4585;SDS011;2305;50.118;8.952;2022-09-29T09:31:55;11.53;;;5.57;;
4585;SDS011;2305;50.118;8.952;2022-09-29T09:34:28;15.57;;;5.50;;
4585;SDS011;2305;50.118;8.952;2022-09-29T09:37:11;13.77;;;5.40;;
4585;SDS011;2305;50.118;8.952;2022-09-29T09:39:44;10.83;;;5.47;;
4585;SDS011;2305;50.118;8.952;2022-09-29T09:42:19;11.03;;;5.60;;
4585;SDS011;2305;50.118;8.952;2022-09-29T09:44:50;8.17;;;4.30;;
4585;SDS011;2305;50.118;8.952;2022-09-29T09:47:24;6.30;;;4.77;;
4585;SDS011;2305;50.118;8.952;2022-09-29T09:49:56;5.60;;;4.30;;
4585;SDS011;2305;50.118;8.952;2022-09-29T09:52:30;7.03;;;4.60;;
4585;SDS011;2305;50.118;8.952;2022-09-29T09:55:04;9.23;;;5.17;;
4585;SDS011;2305;50.118;8.952;2022-09-29T10:00:27;10.13;;;5.03;;
4585;SDS011;2305;50.118;8.952;2022-09-29T10:03:03;8.77;;;4.87;;
4585;SDS011;2305;50.118;8.952;2022-09-29T10:05:34;10.13;;;5.23;;
4585;SDS011;2305;50.118;8.952;2022-09-29T10:08:06;6.73;;;4.60;;
4585;SDS011;2305;50.118;8.952;2022-09-29T10:10:38;8.50;;;4.87;;
4585;SDS011;2305;50.118;8.952;2022-09-29T10:13:24;5.57;;;4.33;;
4585;SDS011;2305;50.118;8.952;2022-09-29T10:15:53;10.07;;;4.70;;
4585;SDS011;2305;50.118;8.952;2022-09-29T10:18:27;4.90;;;4.20;;
4585;SDS011;2305;50.118;8.952;2022-09-29T10:20:58;15.00;;;5.10;;
4585;SDS011;2305;50.118;8.952;2022-09-29T10:23:27;4.83;;;4.07;;
4585;SDS011;2305;50.118;8.952;2022-09-29T10:25:58;6.20;;;4.67;;
4585;SDS011;2305;50.118;8.952;2022-09-29T10:28:36;16.47;;;4.80;;
4585;SDS011;2305;50.118;8.952;2022-09-29T10:31:17;8.70;;;4.00;;
4585;SDS011;2305;50.118;8.952;2022-09-29T10:33:50;5.17;;;3.70;;
4585;SDS011;2305;50.118;8.952;2022-09-29T10:36:21;8.17;;;4.60;;
4585;SDS011;2305;50.118;8.952;2022-09-29T10:38:51;4.77;;;3.63;;
4585;SDS011;2305;50.118;8.952;2022-09-29T10:41:22;6.60;;;3.90;;
4585;SDS011;2305;50.118;8.952;2022-09-29T10:43:50;5.40;;;3.53;;
4585;SDS011;2305;50.118;8.952;2022-09-29T10:46:32;7.10;;;3.50;;
4585;SDS011;2305;50.118;8.952;2022-09-29T10:49:15;5.53;;;4.13;;
4585;SDS011;2305;50.118;8.952;2022-09-29T10:51:51;10.90;;;3.70;;
4585;SDS011;2305;50.118;8.952;2022-09-29T10:54:23;4.27;;;3.33;;
4585;SDS011;2305;50.118;8.952;2022-09-29T10:56:53;7.77;;;3.40;;
4585;SDS011;2305;50.118;8.952;2022-09-29T10:59:22;7.50;;;3.47;;
4585;SDS011;2305;50.118;8.952;2022-09-29T11:01:52;9.10;;;3.40;;
4585;SDS011;2305;50.118;8.952;2022-09-29T11:04:25;5.90;;;3.30;;
4585;SDS011;2305;50.118;8.952;2022-09-29T11:06:56;4.50;;;2.80;;
4585;SDS011;2305;50.118;8.952;2022-09-29T11:09:37;6.87;;;3.30;;
4585;SDS011;2305;50.118;8.952;2022-09-29T11:12:23;7.10;;;3.33;;
4585;SDS011;2305;50.118;8.952;2022-09-29T11:14:54;9.57;;;3.23;;
4585;SDS011;2305;50.118;8.952;2022-09-29T11:17:23;6.53;;;2.67;;
4585;SDS011;2305;50.118;8.952;2022-09-29T11:19:54;6.80;;;2.73;;
4585;SDS011;2305;50.118;8.952;2022-09-29T11:22:38;4.67;;;3.57;;
4585;SDS011;2305;50.118;8.952;2022-09-29T11:25:30;9.80;;;2.97;;
4585;SDS011;2305;50.118;8.952;2022-09-29T11:28:19;6.03;;;3.43;;
4585;SDS011;2305;50.118;8.952;2022-09-29T11:31:07;10.23;;;3.00;;
4585;SDS011;2305;50.118;8.952;2022-09-29T11:33:47;3.90;;;2.20;;
4585;SDS011;2305;50.118;8.952;2022-09-29T11:36:28;4.27;;;2.20;;
4585;SDS011;2305;50.118;8.952;2022-09-29T11:39:16;4.30;;;2.40;;
4585;SDS011;2305;50.118;8.952;2022-09-29T11:41:58;7.47;;;2.80;;
4585;SDS011;2305;50.118;8.952;2022-09-29T11:47:35;4.57;;;2.43;;
4585;SDS011;2305;50.118;8.952;2022-09-29T11:50:17;4.37;;;2.47;;
4585;SDS011;2305;50.118;8.952;2022-09-29T11:53:02;3.93;;;2.33;;
4585;SDS011;2305;50.118;8.952;2022-09-29T11:55:42;4.93;;;2.67;;
4585;SDS011;2305;50.118;8.952;2022-09-29T11:58:28;3.50;;;1.90;;
4585;SDS011;2305;50.118;8.952;2022-09-29T12:01:10;2.93;;;2.30;;
4585;SDS011;2305;50.118;8.952;2022-09-29T12:03:48;10.40;;;2.57;;
4585;SDS011;2305;50.118;8.952;2022-09-29T12:06:40;4.10;;;2.10;;
4585;SDS011;2305;50.118;8.952;2022-09-29T12:09:25;6.10;;;2.33;;
4585;SDS011;2305;50.118;8.952;2022-09-29T12:12:12;5.17;;;2.00;;
4585;SDS011;2305;50.118;8.952;2022-09-29T12:14:59;2.80;;;1.93;;
4585;SDS011;2305;50.118;8.952;2022-09-29T12:17:38;7.90;;;2.03;;
4585;SDS011;2305;50.118;8.952;2022-09-29T12:20:13;4.70;;;2.23;;
4585;SDS011;2305;50.118;8.952;2022-09-29T12:22:45;3.90;;;2.13;;
4585;SDS011;2305;50.118;8.952;2022-09-29T12:25:18;3.80;;;1.90;;
4585;SDS011;2305;50.118;8.952;2022-09-29T12:27:53;3.10;;;1.93;;
4585;SDS011;2305;50.118;8.952;2022-09-29T12:30:27;3.30;;;1.97;;
4585;SDS011;2305;50.118;8.952;2022-09-29T12:32:57;4.83;;;2.20;;
4585;SDS011;2305;50.118;8.952;2022-09-29T12:35:33;3.90;;;2.00;;
4585;SDS011;2305;50.118;8.952;2022-09-29T12:38:07;3.80;;;1.80;;
4585;SDS011;2305;50.118;8.952;2022-09-29T12:40:45;5.50;;;2.53;;
4585;SDS011;2305;50.118;8.952;2022-09-29T12:43:20;6.13;;;2.37;;
4585;SDS011;2305;50.118;8.952;2022-09-29T12:45:55;3.97;;;2.10;;
4585;SDS011;2305;50.118;8.952;2022-09-29T12:48:35;7.50;;;1.87;;
4585;SDS011;2305;50.118;8.952;2022-09-29T12:51:12;4.20;;;1.70;;
4585;SDS011;2305;50.118;8.952;2022-09-29T12:53:50;2.50;;;1.77;;
4585;SDS011;2305;50.118;8.952;2022-09-29T12:56:31;4.93;;;1.50;;
4585;SDS011;2305;50.118;8.952;2022-09-29T12:59:06;2.87;;;1.30;;
4585;SDS011;2305;50.118;8.952;2022-09-29T13:01:41;3.53;;;1.10;;
4585;SDS011;2305;50.118;8.952;2022-09-29T13:07:26;5.13;;;2.23;;
4585;SDS011;2305;50.118;8.952;2022-09-29T13:13:26;3.53;;;1.50;;
4585;SDS011;2305;50.118;8.952;2022-09-29T13:16:06;11.73;;;1.73;;
4585;SDS011;2305;50.118;8.952;2022-09-29T13:18:52;2.40;;;1.30;;
4585;SDS011;2305;50.118;8.952;2022-09-29T13:21:50;5.77;;;1.97;;
4585;SDS011;2305;50.118;8.952;2022-09-29T13:24:29;2.03;;;1.57;;
4585;SDS011;2305;50.118;8.952;2022-09-29T13:30:03;3.53;;;1.87;;
4585;SDS011;2305;50.118;8.952;2022-09-29T13:32:36;3.17;;;1.80;;
4585;SDS011;2305;50.118;8.952;2022-09-29T13:35:10;2.77;;;1.60;;
4585;SDS011;2305;50.118;8.952;2022-09-29T13:37:43;1.97;;;1.20;;
4585;SDS011;2305;50.118;8.952;2022-09-29T13:40:16;2.27;;;1.30;;
4585;SDS011;2305;50.118;8.952;2022-09-29T13:42:48;3.77;;;1.60;;
4585;SDS011;2305;50.118;8.952;2022-09-29T13:54:17;10.77;;;1.97;;
4585;SDS011;2305;50.118;8.952;2022-09-29T14:00:14;5.23;;;1.60;;
4585;SDS011;2305;50.118;8.952;2022-09-29T14:02:47;2.33;;;1.57;;
4585;SDS011;2305;50.118;8.952;2022-09-29T14:05:36;2.70;;;1.40;;
4585;SDS011;2305;50.118;8.952;2022-09-29T14:08:15;7.20;;;1.50;;
4585;SDS011;2305;50.118;8.952;2022-09-29T14:10:47;2.80;;;1.57;;
4585;SDS011;2305;50.118;8.952;2022-09-29T14:13:21;5.43;;;1.63;;
4585;SDS011;2305;50.118;8.952;2022-09-29T14:16:00;3.13;;;1.93;;
4585;SDS011;2305;50.118;8.952;2022-09-29T14:18:40;4.13;;;1.43;;
4585;SDS011;2305;50.118;8.952;2022-09-29T14:27:20;4.33;;;1.20;;
4585;SDS011;2305;50.118;8.952;2022-09-29T14:29:54;3.60;;;1.73;;
4585;SDS011;2305;50.118;8.952;2022-09-29T14:32:31;5.63;;;1.73;;
4585;SDS011;2305;50.118;8.952;2022-09-29T14:35:18;3.83;;;1.90;;
4585;SDS011;2305;50.118;8.952;2022-09-29T14:37:56;4.50;;;1.30;;
4585;SDS011;2305;50.118;8.952;2022-09-29T14:40:27;1.77;;;1.20;;
4585;SDS011;2305;50.118;8.952;2022-09-29T14:43:02;5.33;;;1.73;;
4585;SDS011;2305;50.118;8.952;2022-09-29T14:45:55;2.90;;;1.30;;
4585;SDS011;2305;50.118;8.952;2022-09-29T14:48:56;7.03;;;1.23;;
4585;SDS011;2305;50.118;8.952;2022-09-29T14:51:52;5.27;;;2.33;;
4585;SDS011;2305;50.118;8.952;2022-09-29T14:54:29;2.97;;;1.50;;
4585;SDS011;2305;50.118;8.952;2022-09-29T15:00:03;3.60;;;1.50;;
4585;SDS011;2305;50.118;8.952;2022-09-29T15:02:36;4.50;;;1.60;;
4585;SDS011;2305;50.118;8.952;2022-09-29T15:05:11;4.43;;;1.80;;
4585;SDS011;2305;50.118;8.952;2022-09-29T15:07:41;2.83;;;1.77;;
4585;SDS011;2305;50.118;8.952;2022-09-29T15:10:22;5.87;;;1.50;;
4585;SDS011;2305;50.118;8.952;2022-09-29T15:12:51;4.87;;;1.30;;
4585;SDS011;2305;50.118;8.952;2022-09-29T15:15:40;2.73;;;1.37;;
4585;SDS011;2305;50.118;8.952;2022-09-29T15:18:16;2.13;;;1.10;;
4585;SDS011;2305;50.118;8.952;2022-09-29T15:20:57;5.50;;;1.70;;
4585;SDS011;2305;50.118;8.952;2022-09-29T15:23:40;2.10;;;1.40;;
4585;SDS011;2305;50.118;8.952;2022-09-29T15:26:22;2.20;;;1.40;;
4585;SDS011;2305;50.118;8.952;2022-09-29T15:28:54;3.10;;;1.30;;
4585;SDS011;2305;50.118;8.952;2022-09-29T15:31:25;2.80;;;1.60;;
4585;SDS011;2305;50.118;8.952;2022-09-29T15:33:56;6.50;;;1.67;;
4585;SDS011;2305;50.118;8.952;2022-09-29T15:36:24;3.97;;;1.50;;
4585;SDS011;2305;50.118;8.952;2022-09-29T15:38:59;3.17;;;1.60;;
4585;SDS011;2305;50.118;8.952;2022-09-29T15:41:31;7.57;;;1.90;;
4585;SDS011;2305;50.118;8.952;2022-09-29T15:44:01;4.83;;;1.30;;
4585;SDS011;2305;50.118;8.952;2022-09-29T15:46:39;2.27;;;1.43;;
4585;SDS011;2305;50.118;8.952;2022-09-29T15:49:16;3.17;;;1.37;;
4585;SDS011;2305;50.118;8.952;2022-09-29T15:51:53;2.70;;;1.90;;
4585;SDS011;2305;50.118;8.952;2022-09-29T15:54:25;8.33;;;1.67;;
4585;SDS011;2305;50.118;8.952;2022-09-29T15:56:59;3.30;;;1.97;;
4585;SDS011;2305;50.118;8.952;2022-09-29T15:59:45;6.00;;;1.73;;
4585;SDS011;2305;50.118;8.952;2022-09-29T16:02:19;3.27;;;1.57;;
4585;SDS011;2305;50.118;8.952;2022-09-29T16:04:51;2.00;;;1.80;;
4585;SDS011;2305;50.118;8.952;2022-09-29T16:07:22;2.53;;;1.60;;
4585;SDS011;2305;50.118;8.952;2022-09-29T16:09:58;4.03;;;1.87;;
4585;SDS011;2305;50.118;8.952;2022-09-29T16:12:30;2.53;;;1.30;;
4585;SDS011;2305;50.118;8.952;2022-09-29T16:15:01;8.30;;;3.70;;
4585;SDS011;2305;50.118;8.952;2022-09-29T16:17:30;5.67;;;3.60;;
4585;SDS011;2305;50.118;8.952;2022-09-29T16:19:58;4.43;;;2.00;;
4585;SDS011;2305;50.118;8.952;2022-09-29T16:22:27;2.33;;;1.57;;
4585;SDS011;2305;50.118;8.952;2022-09-29T16:25:06;2.00;;;1.40;;
4585;SDS011;2305;50.118;8.952;2022-09-29T16:27:49;4.07;;;1.80;;
4585;SDS011;2305;50.118;8.952;2022-09-29T16:30:21;6.90;;;1.70;;
4585;SDS011;2305;50.118;8.952;2022-09-29T16:32:55;5.20;;;1.73;;